createdAt,value
2023-01-15T00:02:44.176Z,6.5
2023-01-15T00:32:46.354Z,6.2
2023-01-15T00:42:53.765Z,6.3
2023-01-15T01:22:49.626Z,6.7
2023-01-15T02:22:53.346Z,7
2023-01-15T02:32:53.504Z,7
2023-01-15T02:42:53.648Z,7
2023-01-15T02:52:54.699Z,7
2023-01-15T03:02:55.057Z,7.1
2023-01-15T03:12:56.098Z,7
2023-01-15T03:22:56.726Z,7
2023-01-15T03:32:57.250Z,7
2023-01-15T03:42:57.907Z,7
2023-01-15T03:52:58.643Z,6.9
2023-01-15T04:02:58.926Z,6.9
2023-01-15T04:12:59.470Z,6.8
2023-01-15T04:23:00.360Z,6.8
2023-01-15T04:33:00.733Z,6.8
2023-01-15T04:43:01.085Z,6.8
2023-01-15T04:53:01.983Z,6.8
2023-01-15T05:13:03.904Z,6.8
2023-01-15T05:23:04.383Z,6.8
2023-01-15T05:33:05.413Z,6.8
2023-01-15T05:43:06.030Z,6.8
2023-01-15T05:53:06.103Z,6.8
2023-01-15T06:03:06.230Z,6.8
2023-01-15T06:13:07.168Z,6.9
2023-01-15T06:23:07.857Z,6.9
2023-01-15T06:33:08.295Z,7
2023-01-15T06:43:08.482Z,7
2023-01-15T06:53:09.467Z,7
2023-01-15T07:03:10.452Z,7
2023-01-15T07:13:10.766Z,7
2023-01-15T07:23:11.167Z,7
2023-01-15T07:33:12.224Z,7
2023-01-15T07:43:12.817Z,7
2023-01-15T07:53:13.507Z,7
2023-01-15T08:03:14.473Z,6.9
2023-01-15T08:13:15.174Z,6.9
2023-01-15T08:23:15.619Z,6.9
2023-01-15T08:33:16.278Z,6.9
2023-01-15T08:43:16.548Z,6.9
2023-01-15T08:53:16.908Z,6.9
2023-01-15T09:03:17.421Z,6.9
2023-01-15T09:13:17.731Z,6.8
2023-01-15T09:23:18.659Z,6.7
2023-01-15T09:33:19.380Z,6.7
2023-01-15T09:43:19.842Z,6.7
2023-01-15T09:53:20.654Z,6.8
2023-01-15T10:03:21.221Z,6.8
2023-01-15T10:03:43.007Z,6.8
2023-01-15T10:13:27.602Z,6.9
2023-01-15T10:23:28.220Z,6.9
2023-01-15T10:33:30.584Z,7
2023-01-15T10:43:29.653Z,7.1
2023-01-15T10:53:29.979Z,7.3
2023-01-15T11:03:30.936Z,7.5
2023-01-15T11:23:31.879Z,7.5
2023-01-15T11:33:32.664Z,7.5
2023-01-15T11:43:32.773Z,7.5
2023-01-15T11:53:33.780Z,7.5
2023-01-15T12:03:34.395Z,7.5
2023-01-15T12:13:34.363Z,7.5
2023-01-15T12:23:34.708Z,7.4
2023-01-15T12:33:35.053Z,7.4
2023-01-15T12:43:35.524Z,7.3
2023-01-15T12:53:36.065Z,7.4
2023-01-15T13:03:36.163Z,7.5
2023-01-15T13:13:37.178Z,7.4
2023-01-15T13:23:37.769Z,7.4
2023-01-15T13:33:38.708Z,7.4
2023-01-15T13:43:39.340Z,7.3
2023-01-15T14:33:41.018Z,7.5
2023-01-15T14:43:41.144Z,7.4
2023-01-15T14:53:41.905Z,7.5
2023-01-15T15:03:42.023Z,7.4
2023-01-15T15:13:42.637Z,7.5
2023-01-15T15:23:43.447Z,7.5
2023-01-15T15:43:44.331Z,7.4
2023-01-15T15:53:44.499Z,7.3
2023-01-15T16:23:46.797Z,7.3
2023-01-15T16:33:47.266Z,7.3
2023-01-15T17:13:49.223Z,7.3
2023-01-15T17:23:49.272Z,7.2
2023-01-15T17:43:49.685Z,7.3
2023-01-15T17:53:50.047Z,7.3
2023-01-15T18:03:50.716Z,7.3
2023-01-15T18:13:51.204Z,7.3
2023-01-15T18:23:51.475Z,7.2
2023-01-15T18:33:52.097Z,7.1
2023-01-15T18:43:52.321Z,7.1
2023-01-15T19:03:52.826Z,7
2023-01-15T20:33:58.417Z,6.9
2023-01-15T20:43:58.705Z,7
2023-01-15T20:53:59.237Z,7
2023-01-15T21:03:59.833Z,7
2023-01-15T21:14:00.212Z,6.9
2023-01-15T21:24:00.549Z,6.7
2023-01-15T21:54:02.145Z,6.6
2023-01-15T22:14:03.741Z,6.4
2023-01-15T23:34:08.197Z,5.3
2023-01-15T23:44:08.313Z,5.4
2023-01-15T23:54:08.859Z,5.5
